Antiville, Indiana
Current Conditions -  °F | °C
As of 4:26 AM on Thursday 23 Oct 2014 (Local Time) from KMIE Reporting Station
Haze Haze  
Wind Chill: 33°   Ceiling: 200
Heat Index: 33°   Visibility: 0.75mi
Dew Point: 32°   Wind: 3mph
Humidity: 96%   Direction: 100°E
Pressure: 30.26"   Gusts: NA
Location:  40.4312°N, 85.0058°W
Report Text: KMIE 230826Z AUTO 10003KT 3/4SM BR VV002 01/00 A3026 RMK AO2 I1000 T00060000
Loading
Personal Weather Stations






























Interactive Weather Map
Tropical Storm Tracking
New forecast layout! Learn more

10-Day Weather Forecast

Advertisements
Track Severe Weather on mobile